الصفحة الرئيسية
METAR-TAF:

METAR-TAF

مطار :

مطار ديوري حماني

نيامي, النيجر

دائرة عرض: 13-29N, خط طول: 002-10E, ارتفاع: 223 متر

مراقبة الطقس الحالي

تاريخ ووقت الإصدار 22 دقيقة قبل الساعة 00:00UTC
ريح 1 عقدةمن اتجاهات متغيرة
درجة الحرارة 22°درجة مئوية
الرطوبة 100%
ضغط 1012 hPa
الرؤية 10 كم أو أكثر
غيوم قليلة على ارتفاع 1600 قدم

METAR: DRRN 180000Z VRB01KT 9999 FEW016 22/22 Q1012 NOSIG

زمن: 01:22 (00:22 UTC)

توقعات

تاريخ ووقت الإصدار 1ساعة و 22 دقيقة قبل الساعة 23:00UTC
التوقعات صالحة من18 الساعة 00 UTC إلى 19 الساعة 06 UTC
ريح 8 عقدة من الغرب/الجنوب الغربي
الرؤية: 8000 متر
نظرية الاحتمالات 30% :
مؤقت
من 18 الساعة 14 UTC إلى 18 الساعة 20 UTC
الرؤية: 4000 متر
غيوم مفككة على ارتفاع 2000 قدم
غيوم متفرقة على ارتفاع 3000 قدم, مزنة ركامية.
عاصفة رعدية, زخات من المطر

TAF: DRRN 172300Z 1800/1906 24008KT 8000 NSC PROB30 TEMPO 1814/1820 4000 TS SHRA BKN020 SCT030CB

أرصاد الطقس والتوقعات من أكثر من 4000 مطار (تقارير الطقس للمطار METAR والتنبؤ بالطقس بالمطارTAF).

المحطات المتاحة هي النقط الصفراء والحمراء على الخريطة.

حرك المؤشر فوق النقطة لمعرفة اسم المحطة.

ثم انقر لمعرفة أرصاد وتوقعات الطقس.

لتغيير الخارطة: اضغط على الأزرار الخضراء مع رمز الصليب الأسود للتكبير. على الزر الأخضر مع شرطة للتصغير، أو على الأسهم الخضراء للخرائط المجاورة.


METAR-TAF: